Tain, United Kingdom
Current Conditions -  °F | °C
As of 6:50 AM on Tuesday 21 Oct 2014 (Local Time) from EGPE Reporting Station
Rain Showers Rain Showers  
Wind Chill: 36°   Ceiling: 4200
Heat Index: 45°   Visibility: 6mi
Dew Point: 43°   Wind: 23mph
Humidity: 93%   Direction: 250°WSW
Pressure: 29.06"   Gusts: NA
Location:  57.81°N, 4.06°W
Report Text: EGPE 210550Z 25020KT 9999 SHRA FEW012 SCT028 BKN042 07/06 Q0984
Loading
Personal Weather Stations






























Interactive Weather Map
Tropical Storm Tracking
New forecast layout! Learn more

10-Day Weather Forecast

Advertisements
Track Severe Weather on mobile